JST855 YBBN-YSSY
Flight info
| Callsign | JST855 |
|---|---|
| Flight time | N/A |
| Altitude | 38000 |
| Route | SANEG2/01R SANEG H91 IGDAM H652 TESAT |
| Aircraft | A21N/M-SDE2E3FGHIRWXY/LB1 |
Departure
| Time | 2026-05-05 10:02 |
|---|---|
| Airport | Brisbane International Airport (YBBN) |
Arrival
| Time | N/A |
|---|---|
| Airport | Sydney Kingsford Smith International Airport (YSSY) |
| Time | Latitude | Longitude | Altitude | Speed | Heading |
|---|---|---|---|---|---|
| 2026-05-05 09:35 | -27.38248 | 153.12271 | 22 ft | 0 kts | 233° |
| 2026-05-05 09:53 | -27.38239 | 153.12285 | 22 ft | 3 kts | 255° |
| 2026-05-05 09:53 | -27.38240 | 153.12303 | 24 ft | 3 kts | 292° |
| 2026-05-05 09:53 | -27.38244 | 153.12314 | 23 ft | 0 kts | 292° |
| 2026-05-05 09:54 | -27.38245 | 153.12321 | 25 ft | 1 kts | 213° |
| 2026-05-05 09:54 | -27.38238 | 153.12321 | 27 ft | 0 kts | 123° |
| 2026-05-05 09:54 | -27.38237 | 153.12318 | 25 ft | 0 kts | 123° |
| 2026-05-05 09:56 | -27.38238 | 153.12320 | 21 ft | 1 kts | 123° |
| 2026-05-05 09:56 | -27.38241 | 153.12325 | 21 ft | 1 kts | 123° |
| 2026-05-05 09:56 | -27.38244 | 153.12330 | 21 ft | 0 kts | 123° |
| 2026-05-05 09:56 | -27.38246 | 153.12333 | 21 ft | 2 kts | 123° |
| 2026-05-05 09:57 | -27.38263 | 153.12376 | 21 ft | 3 kts | 93° |
| 2026-05-05 09:57 | -27.38272 | 153.12443 | 21 ft | 13 kts | 107° |
| 2026-05-05 09:57 | -27.38330 | 153.12555 | 21 ft | 20 kts | 145° |
| 2026-05-05 09:57 | -27.38441 | 153.12543 | 21 ft | 17 kts | 218° |
| 2026-05-05 09:58 | -27.38564 | 153.12447 | 21 ft | 27 kts | 195° |
| 2026-05-05 09:58 | -27.38748 | 153.12344 | 22 ft | 28 kts | 212° |
| 2026-05-05 09:58 | -27.38875 | 153.12260 | 23 ft | 21 kts | 208° |
| 2026-05-05 09:58 | -27.39013 | 153.12182 | 21 ft | 24 kts | 206° |
| 2026-05-05 09:59 | -27.39167 | 153.12094 | 22 ft | 25 kts | 210° |
| 2026-05-05 09:59 | -27.39322 | 153.12005 | 23 ft | 25 kts | 206° |
| 2026-05-05 09:59 | -27.39481 | 153.11917 | 22 ft | 26 kts | 209° |
| 2026-05-05 09:59 | -27.39662 | 153.11811 | 21 ft | 27 kts | 207° |
| 2026-05-05 10:00 | -27.39842 | 153.11706 | 22 ft | 32 kts | 207° |
| 2026-05-05 10:00 | -27.40037 | 153.11594 | 21 ft | 32 kts | 206° |
| 2026-05-05 10:00 | -27.40219 | 153.11498 | 22 ft | 12 kts | 181° |
| 2026-05-05 10:00 | -27.40269 | 153.11543 | 21 ft | 21 kts | 121° |
| 2026-05-05 10:01 | -27.40304 | 153.11635 | 21 ft | 13 kts | 110° |
| 2026-05-05 10:01 | -27.40320 | 153.11743 | 21 ft | 11 kts | 85° |
| 2026-05-05 10:01 | -27.40269 | 153.11838 | 21 ft | 14 kts | 22° |
| 2026-05-05 10:01 | -27.40025 | 153.11965 | 20 ft | 73 kts | 28° |
| 2026-05-05 10:02 | -27.39339 | 153.12359 | 20 ft | 148 kts | 27° |
| 2026-05-05 10:02 | -27.38246 | 153.12987 | 170 ft | 192 kts | 27° |
| 2026-05-05 10:02 | -27.37021 | 153.13691 | 718 ft | 203 kts | 28° |
| 2026-05-05 10:02 | -27.35733 | 153.14439 | 1113 ft | 212 kts | 30° |
| 2026-05-05 10:03 | -27.34581 | 153.15556 | 1126 ft | 233 kts | 53° |
| 2026-05-05 10:03 | -27.33552 | 153.17109 | 988 ft | 258 kts | 54° |
| 2026-05-05 10:03 | -27.32458 | 153.18683 | 1474 ft | 250 kts | 52° |
| 2026-05-05 10:03 | -27.31354 | 153.20157 | 1965 ft | 250 kts | 50° |
| 2026-05-05 10:04 | -27.30152 | 153.21685 | 2307 ft | 263 kts | 49° |
| 2026-05-05 10:04 | -27.28964 | 153.23233 | 2926 ft | 267 kts | 59° |
| 2026-05-05 10:04 | -27.28389 | 153.25181 | 3586 ft | 264 kts | 87° |
| 2026-05-05 10:04 | -27.28322 | 153.27246 | 4316 ft | 264 kts | 92° |
| 2026-05-05 10:05 | -27.28311 | 153.29302 | 5047 ft | 265 kts | 91° |
| 2026-05-05 10:05 | -27.28277 | 153.31397 | 5727 ft | 268 kts | 90° |
| 2026-05-05 10:05 | -27.28218 | 153.33488 | 6382 ft | 272 kts | 90° |
| 2026-05-05 10:05 | -27.28140 | 153.35627 | 7034 ft | 276 kts | 89° |
| 2026-05-05 10:06 | -27.28051 | 153.37788 | 7718 ft | 278 kts | 89° |
| 2026-05-05 10:06 | -27.28263 | 153.39940 | 8390 ft | 278 kts | 114° |
| 2026-05-05 10:06 | -27.29422 | 153.41644 | 9062 ft | 278 kts | 146° |
| 2026-05-05 10:06 | -27.31228 | 153.42370 | 9752 ft | 281 kts | 178° |
| 2026-05-05 10:07 | -27.33157 | 153.42081 | 10384 ft | 287 kts | 191° |
| 2026-05-05 10:07 | -27.35181 | 153.41669 | 10701 ft | 305 kts | 187° |
| 2026-05-05 10:07 | -27.37358 | 153.41435 | 10978 ft | 323 kts | 187° |
| 2026-05-05 10:07 | -27.39585 | 153.40805 | 11227 ft | 338 kts | 199° |
| 2026-05-05 10:08 | -27.41880 | 153.39984 | 11544 ft | 350 kts | 198° |
| 2026-05-05 10:08 | -27.43459 | 153.39424 | 11865 ft | 354 kts | 198° |
| 2026-05-05 10:08 | -27.45834 | 153.38604 | 12382 ft | 360 kts | 198° |
| 2026-05-05 10:08 | -27.48234 | 153.37843 | 12891 ft | 364 kts | 201° |
| 2026-05-05 10:09 | -27.50405 | 153.36433 | 13387 ft | 364 kts | 223° |
| 2026-05-05 10:09 | -27.52229 | 153.34439 | 13956 ft | 366 kts | 228° |
| 2026-05-05 10:09 | -27.54045 | 153.32405 | 14468 ft | 369 kts | 227° |
| 2026-05-05 10:09 | -27.55940 | 153.30437 | 14981 ft | 373 kts | 225° |
| 2026-05-05 10:10 | -27.57663 | 153.28281 | 15463 ft | 368 kts | 243° |
| 2026-05-05 10:10 | -27.58719 | 153.25707 | 15987 ft | 365 kts | 252° |
| 2026-05-05 10:10 | -27.59680 | 153.23020 | 16528 ft | 367 kts | 251° |
| 2026-05-05 10:10 | -27.60690 | 153.20371 | 17050 ft | 369 kts | 250° |
| 2026-05-05 10:11 | -27.61678 | 153.17717 | 17518 ft | 370 kts | 252° |
| 2026-05-05 10:11 | -27.63062 | 153.15207 | 17965 ft | 384 kts | 231° |
| 2026-05-05 10:11 | -27.65231 | 153.13373 | 18329 ft | 401 kts | 211° |
| 2026-05-05 10:11 | -27.67850 | 153.12207 | 18666 ft | 407 kts | 205° |
| 2026-05-05 10:12 | -27.70457 | 153.11061 | 19034 ft | 407 kts | 208° |
| 2026-05-05 10:12 | -27.73030 | 153.09739 | 19445 ft | 405 kts | 211° |
| 2026-05-05 10:12 | -27.75550 | 153.08288 | 19861 ft | 404 kts | 214° |
| 2026-05-05 10:12 | -27.78010 | 153.06774 | 20271 ft | 404 kts | 215° |
| 2026-05-05 10:13 | -27.80458 | 153.05208 | 20686 ft | 403 kts | 217° |
| 2026-05-05 10:13 | -27.82945 | 153.03692 | 21125 ft | 408 kts | 211° |
| 2026-05-05 10:13 | -27.85555 | 153.02445 | 21564 ft | 412 kts | 207° |
| 2026-05-05 10:13 | -27.88241 | 153.01305 | 22012 ft | 414 kts | 206° |
| 2026-05-05 10:14 | -27.90964 | 153.00197 | 22448 ft | 415 kts | 206° |
| 2026-05-05 10:14 | -27.93681 | 152.99089 | 22876 ft | 416 kts | 207° |
| 2026-05-05 10:14 | -27.96406 | 152.97954 | 23294 ft | 417 kts | 207° |
| 2026-05-05 10:14 | -27.99125 | 152.96798 | 23683 ft | 418 kts | 208° |
| 2026-05-05 10:15 | -28.01838 | 152.95623 | 23989 ft | 419 kts | 208° |
| 2026-05-05 10:15 | -28.04570 | 152.94427 | 24236 ft | 422 kts | 209° |
| 2026-05-05 10:15 | -28.07320 | 152.93216 | 24489 ft | 425 kts | 209° |
| 2026-05-05 10:15 | -28.10084 | 152.91995 | 24747 ft | 427 kts | 209° |
| 2026-05-05 10:16 | -28.12852 | 152.90764 | 24973 ft | 431 kts | 209° |
| 2026-05-05 10:16 | -28.15658 | 152.89514 | 25219 ft | 433 kts | 210° |
| 2026-05-05 10:16 | -28.18467 | 152.88263 | 25485 ft | 435 kts | 210° |
| 2026-05-05 10:16 | -28.21269 | 152.87015 | 25752 ft | 437 kts | 210° |
| 2026-05-05 10:17 | -28.24090 | 152.85759 | 26005 ft | 439 kts | 210° |
| 2026-05-05 10:17 | -28.26945 | 152.84488 | 26265 ft | 441 kts | 210° |
| 2026-05-05 10:17 | -28.29805 | 152.83215 | 26520 ft | 442 kts | 210° |
| 2026-05-05 10:17 | -28.32682 | 152.81933 | 26791 ft | 445 kts | 211° |
| 2026-05-05 10:18 | -28.35581 | 152.80639 | 26996 ft | 448 kts | 211° |
| 2026-05-05 10:18 | -28.38490 | 152.79338 | 27212 ft | 451 kts | 211° |
| 2026-05-05 10:18 | -28.41414 | 152.78031 | 27422 ft | 453 kts | 211° |
| 2026-05-05 10:18 | -28.44313 | 152.76737 | 27677 ft | 454 kts | 211° |
| 2026-05-05 10:19 | -28.47270 | 152.75417 | 27919 ft | 455 kts | 211° |
| 2026-05-05 10:19 | -28.50214 | 152.74106 | 28150 ft | 455 kts | 211° |
| 2026-05-05 10:19 | -28.56167 | 152.71444 | 28432 ft | 461 kts | 211° |
| 2026-05-05 10:20 | -28.59152 | 152.70107 | 28712 ft | 461 kts | 211° |
| 2026-05-05 10:20 | -28.62156 | 152.68756 | 28867 ft | 465 kts | 211° |
| 2026-05-05 10:20 | -28.65131 | 152.67416 | 29073 ft | 466 kts | 211° |
| 2026-05-05 10:20 | -28.68143 | 152.66064 | 29389 ft | 465 kts | 211° |
| 2026-05-05 10:21 | -28.71157 | 152.64713 | 29707 ft | 464 kts | 212° |
| 2026-05-05 10:21 | -28.74165 | 152.63364 | 30006 ft | 463 kts | 212° |
| 2026-05-05 10:21 | -28.77167 | 152.62016 | 30287 ft | 463 kts | 212° |
| 2026-05-05 10:21 | -28.80155 | 152.60671 | 30508 ft | 463 kts | 212° |
| 2026-05-05 10:22 | -28.83162 | 152.59316 | 30737 ft | 463 kts | 213° |
| 2026-05-05 10:22 | -28.86095 | 152.57872 | 31029 ft | 456 kts | 216° |
| 2026-05-05 10:22 | -28.88911 | 152.56308 | 31304 ft | 452 kts | 218° |
| 2026-05-05 10:22 | -28.91704 | 152.54653 | 31519 ft | 451 kts | 219° |
| 2026-05-05 10:23 | -28.94479 | 152.52962 | 31750 ft | 451 kts | 219° |
| 2026-05-05 10:23 | -28.97253 | 152.51263 | 32029 ft | 451 kts | 219° |
| 2026-05-05 10:23 | -29.00019 | 152.49577 | 32247 ft | 451 kts | 220° |
| 2026-05-05 10:23 | -29.02797 | 152.47897 | 32508 ft | 451 kts | 219° |
| 2026-05-05 10:24 | -29.05565 | 152.46235 | 32783 ft | 450 kts | 219° |
| 2026-05-05 10:24 | -29.08347 | 152.44570 | 33017 ft | 451 kts | 219° |
| 2026-05-05 10:24 | -29.11128 | 152.42910 | 33257 ft | 451 kts | 219° |
| 2026-05-05 10:24 | -29.13924 | 152.41242 | 33473 ft | 450 kts | 219° |
| 2026-05-05 10:25 | -29.16680 | 152.39597 | 33716 ft | 450 kts | 219° |
| 2026-05-05 10:25 | -29.19449 | 152.37944 | 33957 ft | 450 kts | 219° |
| 2026-05-05 10:25 | -29.22219 | 152.36288 | 34180 ft | 449 kts | 219° |
| 2026-05-05 10:25 | -29.24999 | 152.34625 | 34365 ft | 449 kts | 219° |
| 2026-05-05 10:26 | -29.27755 | 152.32976 | 34581 ft | 448 kts | 220° |
| 2026-05-05 10:26 | -29.30526 | 152.31318 | 34833 ft | 446 kts | 220° |
| 2026-05-05 10:26 | -29.33272 | 152.29674 | 35035 ft | 444 kts | 219° |
| 2026-05-05 10:26 | -29.35973 | 152.28054 | 35161 ft | 444 kts | 220° |
| 2026-05-05 10:27 | -29.38701 | 152.26414 | 35343 ft | 444 kts | 220° |
| 2026-05-05 10:27 | -29.41438 | 152.24768 | 35511 ft | 443 kts | 220° |
| 2026-05-05 10:27 | -29.44167 | 152.23127 | 35670 ft | 442 kts | 220° |
| 2026-05-05 10:27 | -29.46874 | 152.21498 | 35759 ft | 442 kts | 220° |
| 2026-05-05 10:28 | -29.52355 | 152.18196 | 35942 ft | 442 kts | 219° |
| 2026-05-05 10:28 | -29.55066 | 152.16566 | 36198 ft | 439 kts | 220° |
| 2026-05-05 10:28 | -29.57786 | 152.14930 | 36313 ft | 439 kts | 220° |
| 2026-05-05 10:29 | -29.63215 | 152.11645 | 36410 ft | 442 kts | 220° |
| 2026-05-05 10:29 | -29.68617 | 152.08378 | 36567 ft | 443 kts | 219° |
| 2026-05-05 10:30 | -29.71506 | 152.06973 | 36666 ft | 457 kts | 210° |
| 2026-05-05 10:30 | -29.74591 | 152.05934 | 36782 ft | 466 kts | 205° |
| 2026-05-05 10:30 | -29.77779 | 152.05107 | 36986 ft | 468 kts | 203° |
| 2026-05-05 10:30 | -29.80973 | 152.04371 | 37083 ft | 469 kts | 203° |
| 2026-05-05 10:31 | -29.87357 | 152.02898 | 37173 ft | 470 kts | 204° |
| 2026-05-05 10:31 | -29.93770 | 152.01304 | 37277 ft | 471 kts | 204° |
| 2026-05-05 10:32 | -30.00178 | 151.99638 | 37410 ft | 472 kts | 204° |
| 2026-05-05 10:32 | -30.06590 | 151.97947 | 37498 ft | 473 kts | 204° |
| 2026-05-05 10:33 | -30.12987 | 151.96264 | 37627 ft | 474 kts | 204° |
| 2026-05-05 10:33 | -30.19423 | 151.94570 | 37706 ft | 476 kts | 204° |
| 2026-05-05 10:34 | -30.25903 | 151.92866 | 37813 ft | 476 kts | 204° |
| 2026-05-05 10:34 | -30.32362 | 151.91095 | 37849 ft | 473 kts | 208° |
| 2026-05-05 10:35 | -30.38477 | 151.88569 | 37923 ft | 464 kts | 214° |
| 2026-05-05 10:35 | -30.44390 | 151.85704 | 38016 ft | 463 kts | 214° |
| 2026-05-05 10:36 | -30.47353 | 151.84261 | 38173 ft | 461 kts | 214° |
| 2026-05-05 10:36 | -30.50325 | 151.82833 | 38190 ft | 462 kts | 214° |